Time;durP1;ratioP1;P1;durP2;ratioP2;P2;SDS_P1;SDS_P2;PMS_P1;PMS_P2;Temp;Humidity;BMP_temperature;BMP_pressure;BME280_temperature;BME280_humidity;BME280_pressure;Samples;Min_cycle;Max_cycle;Signal;HPM_P1;HPM_P2
2022/06/04 00:01:56;;;;;;;1.27;1.10;;;19.90;55.30;;;;;;5073307;28;20218;-70
2022/06/04 00:04:22;;;;;;;2.13;1.05;;;19.90;55.30;;;;;;5074616;28;20182;-70
2022/06/04 00:06:48;;;;;;;1.20;1.10;;;19.90;55.30;;;;;;5074233;28;20173;-69
2022/06/04 00:09:15;;;;;;;2.00;1.20;;;19.90;55.20;;;;;;5073529;28;20202;-68
2022/06/04 00:17:10;;;;;;;1.88;1.17;;;19.90;55.20;;;;;;5073411;28;20652;-68
2022/06/04 00:19:36;;;;;;;1.17;1.10;;;19.90;55.20;;;;;;5073579;28;20171;-69
2022/06/04 00:22:03;;;;;;;0.93;0.93;;;19.90;55.20;;;;;;5073771;28;20179;-68
2022/06/04 00:24:28;;;;;;;1.23;1.08;;;19.80;55.20;;;;;;5073018;28;20249;-68
2022/06/04 00:26:54;;;;;;;1.50;1.27;;;19.80;55.20;;;;;;5054789;28;20645;-69
2022/06/04 00:29:19;;;;;;;1.33;1.00;;;19.80;55.20;;;;;;5073256;28;20202;-69
2022/06/04 00:31:45;;;;;;;1.15;1.02;;;19.80;55.30;;;;;;5072005;28;20182;-71
2022/06/04 00:34:10;;;;;;;1.40;1.30;;;19.80;55.30;;;;;;5073433;28;20170;-70
2022/06/04 00:36:37;;;;;;;1.58;1.48;;;19.80;55.30;;;;;;5072761;28;20181;-69
2022/06/04 00:39:03;;;;;;;1.42;1.13;;;19.80;55.30;;;;;;5073759;28;20223;-69
2022/06/04 00:41:35;;;;;;;1.20;1.10;;;19.80;55.30;;;;;;5073650;28;20213;-69
2022/06/04 00:44:07;;;;;;;1.45;1.27;;;19.80;55.30;;;;;;5071512;28;20173;-69
2022/06/04 00:46:39;;;;;;;1.48;1.38;;;19.80;55.30;;;;;;5073551;28;20283;-69
2022/06/04 00:49:05;;;;;;;1.55;1.25;;;19.80;55.30;;;;;;5073450;28;20178;-68
2022/06/04 00:51:30;;;;;;;1.40;1.30;;;19.80;55.40;;;;;;5071834;28;20660;-69
2022/06/04 00:53:56;;;;;;;1.40;1.17;;;19.80;55.30;;;;;;5053169;28;20314;-69
2022/06/04 00:56:59;;;;;;;1.42;1.30;;;19.80;55.40;;;;;;5035605;28;20317;-69
2022/06/04 00:59:43;;;;;;;2.30;1.30;;;19.80;55.40;;;;;;5052776;28;20183;-70
2022/06/04 01:02:37;;;;;;;1.58;1.48;;;19.80;55.30;;;;;;5052861;28;20231;-70
2022/06/04 01:05:32;;;;;;;1.35;1.25;;;19.70;55.30;;;;;;5052578;28;20179;-69
2022/06/04 01:08:04;;;;;;;1.65;1.30;;;19.70;55.30;;;;;;5051778;28;20183;-69
2022/06/04 01:10:30;;;;;;;1.23;1.23;;;19.70;55.30;;;;;;5052851;28;20326;-68
2022/06/04 01:12:57;;;;;;;1.10;1.10;;;19.70;55.30;;;;;;5052194;28;20694;-67
2022/06/04 01:15:40;;;;;;;1.40;1.30;;;19.70;55.30;;;;;;5052025;28;20179;-68
2022/06/04 01:18:14;;;;;;;1.55;1.45;;;19.70;55.40;;;;;;5051770;28;20171;-67
2022/06/04 01:20:43;;;;;;;1.40;1.30;;;19.70;55.40;;;;;;5051913;28;20201;-68
2022/06/04 01:23:32;;;;;;;1.35;1.25;;;19.70;55.30;;;;;;5051466;28;20179;-68
2022/06/04 01:26:35;;;;;;;1.67;1.40;;;19.70;55.50;;;;;;5050712;28;20257;-68
2022/06/04 01:29:07;;;;;;;1.35;1.25;;;19.70;55.50;;;;;;5052825;28;20630;-69
2022/06/04 01:31:47;;;;;;;2.38;1.60;;;19.70;55.40;;;;;;5035342;28;20233;-70
2022/06/04 01:34:13;;;;;;;1.23;1.10;;;19.70;55.30;;;;;;5034749;28;20225;-69
2022/06/04 01:36:45;;;;;;;1.83;1.30;;;19.70;55.40;;;;;;5034238;28;20178;-70
2022/06/04 01:39:13;;;;;;;2.22;1.65;;;19.70;55.50;;;;;;5052425;28;20221;-69
2022/06/04 01:41:39;;;;;;;0.90;0.90;;;19.70;55.40;;;;;;5050141;28;20695;-69
2022/06/04 01:44:29;;;;;;;1.38;1.30;;;19.70;55.50;;;;;;5052799;28;20179;-68
2022/06/04 01:46:56;;;;;;;1.50;1.40;;;19.70;55.40;;;;;;5045033;28;20191;-69
2022/06/04 01:49:31;;;;;;;1.60;1.40;;;19.70;55.50;;;;;;5051303;28;20210;-69
2022/06/04 01:52:02;;;;;;;1.65;1.40;;;19.70;55.50;;;;;;5055310;28;20166;-69
2022/06/04 01:54:49;;;;;;;1.30;1.20;;;19.70;55.50;;;;;;5054597;28;20195;-69
2022/06/04 01:57:35;;;;;;;1.70;1.60;;;19.70;55.40;;;;;;5071225;28;20175;-69
2022/06/04 02:00:16;;;;;;;1.40;1.30;;;19.70;55.50;;;;;;5056086;28;20261;-69
2022/06/04 02:02:50;;;;;;;1.70;1.60;;;19.70;55.50;;;;;;5055178;28;20232;-70
2022/06/04 02:05:23;;;;;;;1.50;1.40;;;19.60;55.40;;;;;;5071363;28;20181;-70
2022/06/04 02:07:50;;;;;;;1.48;1.38;;;19.60;55.30;;;;;;5070104;28;20249;-69
2022/06/04 02:10:38;;;;;;;1.73;1.55;;;19.60;55.40;;;;;;5071139;28;20288;-68
2022/06/04 02:13:05;;;;;;;1.50;1.40;;;19.60;55.50;;;;;;5071237;28;20213;-68
2022/06/04 02:15:33;;;;;;;2.45;1.55;;;19.60;56.10;;;;;;5071336;28;20707;-68
2022/06/04 02:17:59;;;;;;;1.35;1.10;;;19.60;55.50;;;;;;5070520;28;20589;-68
2022/06/04 02:20:25;;;;;;;2.17;1.25;;;19.60;55.50;;;;;;5070910;28;20208;-68
2022/06/04 02:22:51;;;;;;;1.38;1.27;;;19.60;55.50;;;;;;5070888;28;20695;-68
2022/06/04 02:25:16;;;;;;;2.13;1.48;;;19.60;55.50;;;;;;5072276;28;20179;-68
2022/06/04 02:27:43;;;;;;;1.40;1.30;;;19.60;55.70;;;;;;5054242;28;20219;-70
2022/06/04 02:30:09;;;;;;;1.55;1.30;;;19.60;55.60;;;;;;5070030;28;20672;-69
2022/06/04 02:32:50;;;;;;;1.80;1.63;;;19.60;55.50;;;;;;5070592;28;20532;-71
2022/06/04 02:35:35;;;;;;;1.77;1.58;;;19.60;55.60;;;;;;5072357;28;20182;-70
2022/06/04 02:38:06;;;;;;;1.63;1.50;;;19.60;55.60;;;;;;5055145;28;20170;-69
2022/06/04 02:40:35;;;;;;;1.40;1.30;;;19.60;55.60;;;;;;5071020;28;20174;-68
2022/06/04 02:43:05;;;;;;;1.55;1.45;;;19.60;55.60;;;;;;5070115;28;20181;-69
2022/06/04 02:45:36;;;;;;;1.73;1.63;;;19.50;55.60;;;;;;5070831;28;20171;-69
2022/06/04 02:48:30;;;;;;;1.40;1.30;;;19.60;55.50;;;;;;5072028;28;20170;-68
2022/06/04 02:51:04;;;;;;;1.35;1.23;;;19.50;55.60;;;;;;5070376;28;20225;-69
2022/06/04 02:53:30;;;;;;;1.60;1.25;;;19.60;55.70;;;;;;5057168;28;20641;-69
2022/06/04 02:56:03;;;;;;;1.58;1.48;;;19.60;55.70;;;;;;5054199;28;20187;-68
2022/06/04 02:58:28;;;;;;;1.50;1.40;;;19.60;55.70;;;;;;5037847;28;20711;-69
2022/06/04 03:00:54;;;;;;;2.15;1.95;;;19.50;55.60;;;;;;5037626;28;20223;-70
2022/06/04 03:03:20;;;;;;;1.65;1.35;;;19.50;55.60;;;;;;5054076;28;20261;-69
2022/06/04 03:05:50;;;;;;;1.70;1.60;;;19.50;55.60;;;;;;5053320;28;20657;-70
2022/06/04 03:08:16;;;;;;;1.73;1.63;;;19.50;55.60;;;;;;5055238;28;20567;-68
2022/06/04 03:10:41;;;;;;;1.73;1.58;;;19.50;55.70;;;;;;5053775;28;20217;-68
2022/06/04 03:13:07;;;;;;;1.45;1.35;;;19.50;55.70;;;;;;5054474;28;20175;-68
2022/06/04 03:15:33;;;;;;;2.35;1.90;;;19.50;55.70;;;;;;5055085;28;20179;-68
2022/06/04 03:17:58;;;;;;;1.50;1.40;;;19.50;55.70;;;;;;5054674;28;20163;-68
2022/06/04 03:20:25;;;;;;;1.75;1.60;;;19.50;55.70;;;;;;5054490;28;20506;-67
2022/06/04 03:22:51;;;;;;;1.73;1.33;;;19.50;55.70;;;;;;5054924;28;20190;-68
2022/06/04 03:25:16;;;;;;;3.28;1.90;;;19.50;55.80;;;;;;5054248;28;20183;-68
2022/06/04 03:27:42;;;;;;;1.40;1.30;;;19.50;55.80;;;;;;5054866;28;20210;-69
2022/06/04 03:30:08;;;;;;;1.83;1.48;;;19.50;55.70;;;;;;5054744;28;20682;-70
2022/06/04 03:32:33;;;;;;;1.77;1.63;;;19.50;55.70;;;;;;5054266;28;20207;-69
2022/06/04 03:34:59;;;;;;;1.98;1.88;;;19.50;55.70;;;;;;5054679;28;20210;-70
2022/06/04 03:37:25;;;;;;;1.95;1.75;;;19.50;55.70;;;;;;5054760;28;20175;-69
2022/06/04 03:39:50;;;;;;;2.80;1.67;;;19.50;55.70;;;;;;5053672;28;20195;-69
2022/06/04 03:42:16;;;;;;;1.60;1.50;;;19.50;55.70;;;;;;5054928;28;20255;-69
2022/06/04 03:44:46;;;;;;;1.70;1.60;;;19.50;55.80;;;;;;5054210;28;20201;-69
2022/06/04 03:47:12;;;;;;;2.22;1.50;;;19.50;55.70;;;;;;5054293;28;20176;-69
2022/06/04 03:49:38;;;;;;;2.00;1.73;;;19.40;55.80;;;;;;5054104;28;20710;-69
2022/06/04 03:52:03;;;;;;;1.60;1.50;;;19.50;55.80;;;;;;5059941;28;20188;-69
2022/06/04 03:59:57;;;;;;;1.85;1.75;;;19.50;55.70;;;;;;5073914;28;20572;-69
2022/06/04 04:02:23;;;;;;;1.98;1.80;;;19.50;55.70;;;;;;5073293;28;20309;-69
2022/06/04 04:04:48;;;;;;;2.35;1.67;;;19.50;55.80;;;;;;5074188;28;20306;-70
2022/06/04 04:07:14;;;;;;;1.83;1.73;;;19.50;55.70;;;;;;5074587;28;20533;-69
2022/06/04 04:09:40;;;;;;;2.58;1.75;;;19.50;55.70;;;;;;5072930;28;20645;-68
2022/06/04 04:12:06;;;;;;;2.50;1.92;;;19.50;55.70;;;;;;5074022;28;20242;-68
2022/06/04 04:14:31;;;;;;;2.30;2.08;;;19.50;55.70;;;;;;5073270;28;20178;-67
2022/06/04 04:16:57;;;;;;;1.65;1.55;;;19.50;55.70;;;;;;5073557;28;20185;-68
2022/06/04 04:19:26;;;;;;;2.15;2.03;;;19.50;55.60;;;;;;5073961;28;20262;-69
2022/06/04 04:21:51;;;;;;;1.80;1.70;;;19.50;55.70;;;;;;5072761;28;20261;-68
2022/06/04 04:24:17;;;;;;;1.80;1.70;;;19.50;55.70;;;;;;5073972;28;20214;-68
2022/06/04 04:26:42;;;;;;;2.53;1.80;;;19.50;55.80;;;;;;5073845;28;20296;-69
2022/06/04 04:29:08;;;;;;;1.70;1.60;;;19.50;55.70;;;;;;5073241;28;20178;-69
2022/06/04 04:31:35;;;;;;;1.80;1.70;;;19.50;55.70;;;;;;5073754;28;20225;-70
2022/06/04 04:34:00;;;;;;;2.10;1.90;;;19.50;55.70;;;;;;5073477;28;20175;-69
2022/06/04 04:36:30;;;;;;;2.50;2.10;;;19.50;55.70;;;;;;5072858;28;20269;-69
2022/06/04 04:38:56;;;;;;;1.67;1.58;;;19.50;56.40;;;;;;5073390;28;20191;-69
2022/06/04 04:41:22;;;;;;;2.03;1.60;;;19.50;55.80;;;;;;5073842;28;20178;-69
2022/06/04 04:43:48;;;;;;;1.70;1.60;;;19.50;55.90;;;;;;5072731;28;20178;-69
2022/06/04 04:46:14;;;;;;;2.13;2.00;;;19.40;55.90;;;;;;5073420;28;20539;-69
2022/06/04 04:48:40;;;;;;;2.08;1.88;;;19.40;55.80;;;;;;5073268;28;20520;-69
2022/06/04 04:51:06;;;;;;;2.40;1.85;;;19.50;55.80;;;;;;5072465;28;20570;-68
2022/06/04 04:53:31;;;;;;;1.90;1.70;;;19.40;55.80;;;;;;5055473;28;20178;-69
2022/06/04 04:55:57;;;;;;;1.88;1.77;;;19.40;55.80;;;;;;5053276;28;20266;-68
2022/06/04 04:58:22;;;;;;;2.78;1.88;;;19.50;55.90;;;;;;5052678;28;20171;-69
2022/06/04 05:00:48;;;;;;;2.22;2.03;;;19.50;55.90;;;;;;5053023;28;20515;-69
2022/06/04 05:03:13;;;;;;;2.35;1.80;;;19.50;55.80;;;;;;5052679;28;20697;-70
2022/06/04 05:05:39;;;;;;;2.30;1.80;;;19.50;55.80;;;;;;5052031;28;20281;-70
2022/06/04 05:08:04;;;;;;;2.35;2.15;;;19.50;55.70;;;;;;5052953;28;20170;-68
2022/06/04 05:10:30;;;;;;;1.90;1.80;;;19.50;55.70;;;;;;5052917;28;20210;-68
2022/06/04 05:12:56;;;;;;;2.10;1.67;;;19.50;56.40;;;;;;5051487;28;20183;-68
2022/06/04 05:15:21;;;;;;;1.95;1.83;;;19.50;55.80;;;;;;5052934;28;20183;-68
2022/06/04 05:17:47;;;;;;;2.13;1.92;;;19.50;55.70;;;;;;5052087;28;20171;-68
2022/06/04 05:20:13;;;;;;;1.98;1.88;;;19.50;55.80;;;;;;5053126;28;20175;-68
2022/06/04 05:22:38;;;;;;;2.13;1.92;;;19.50;55.80;;;;;;5052302;28;20250;-67
2022/06/04 05:25:04;;;;;;;1.98;1.88;;;19.50;55.90;;;;;;5052204;28;20202;-69
2022/06/04 05:27:30;;;;;;;1.85;1.75;;;19.50;55.80;;;;;;5052889;28;20179;-69
2022/06/04 05:29:56;;;;;;;2.55;2.20;;;19.50;55.80;;;;;;5052565;28;20569;-69
2022/06/04 05:32:21;;;;;;;2.83;2.10;;;19.50;55.90;;;;;;5052270;28;20541;-71
2022/06/04 05:34:47;;;;;;;2.97;2.17;;;19.50;55.90;;;;;;5052249;28;20175;-72
2022/06/04 05:37:12;;;;;;;2.00;1.90;;;19.50;55.90;;;;;;5052511;28;20175;-69
2022/06/04 05:39:38;;;;;;;2.72;2.03;;;19.50;55.90;;;;;;5051355;28;20220;-69
2022/06/04 05:42:04;;;;;;;2.60;2.30;;;19.50;56.50;;;;;;5052537;28;20209;-69
2022/06/04 05:44:30;;;;;;;2.65;2.30;;;19.50;55.90;;;;;;5052622;28;20203;-68
2022/06/04 05:46:55;;;;;;;2.45;1.80;;;19.50;56.00;;;;;;5051505;28;20676;-68
2022/06/04 05:49:21;;;;;;;2.55;2.35;;;19.50;56.00;;;;;;5052512;28;20171;-69
2022/06/04 05:51:46;;;;;;;2.60;2.40;;;19.50;55.90;;;;;;5055211;28;20633;-69
2022/06/04 05:54:12;;;;;;;2.85;2.25;;;19.50;55.90;;;;;;5071739;28;20174;-69
2022/06/04 05:56:40;;;;;;;2.22;2.03;;;19.50;56.00;;;;;;5072116;28;20181;-69
2022/06/04 05:59:07;;;;;;;2.45;1.83;;;19.50;56.00;;;;;;5072509;28;20261;-69
2022/06/04 06:01:34;;;;;;;2.83;2.00;;;19.50;55.90;;;;;;5071386;28;20802;-70
2022/06/04 06:04:00;;;;;;;2.53;2.10;;;19.40;55.90;;;;;;5072583;28;20175;-69
2022/06/04 06:06:28;;;;;;;2.15;1.90;;;19.60;56.00;;;;;;5072366;28;20668;-69
2022/06/04 06:08:54;;;;;;;3.05;2.20;;;19.60;55.90;;;;;;5071515;28;20185;-69
2022/06/04 06:11:19;;;;;;;2.00;1.80;;;19.50;55.90;;;;;;5071969;28;20677;-69
2022/06/04 06:13:46;;;;;;;2.58;2.15;;;19.50;55.90;;;;;;5071690;28;20181;-69
2022/06/04 06:16:43;;;;;;;3.03;2.40;;;19.50;55.90;;;;;;5053887;28;20178;-68
2022/06/04 06:19:09;;;;;;;2.30;2.10;;;19.50;55.90;;;;;;5067682;28;20263;-68
2022/06/04 06:21:35;;;;;;;2.45;2.25;;;19.60;55.90;;;;;;5071345;28;20203;-69
2022/06/04 06:24:00;;;;;;;2.75;2.25;;;19.50;55.90;;;;;;5073482;28;20645;-69
2022/06/04 06:26:30;;;;;;;2.70;2.45;;;19.60;55.90;;;;;;5076272;28;20178;-69
2022/06/04 06:28:56;;;;;;;2.50;2.20;;;19.60;55.80;;;;;;5075253;28;20182;-70
2022/06/04 06:31:24;;;;;;;2.72;2.53;;;19.60;55.80;;;;;;5075851;28;20228;-71
2022/06/04 06:33:49;;;;;;;2.35;2.22;;;19.60;55.80;;;;;;5075772;28;20200;-71
2022/06/04 06:36:16;;;;;;;2.63;2.35;;;19.60;55.80;;;;;;5075306;28;20186;-69
2022/06/04 06:38:41;;;;;;;2.58;2.30;;;19.60;55.80;;;;;;5075706;28;20207;-70
2022/06/04 06:41:07;;;;;;;3.00;2.70;;;19.60;55.80;;;;;;5075728;28;20206;-70
2022/06/04 06:43:47;;;;;;;2.33;2.13;;;19.50;55.70;;;;;;5074958;28;20178;-69
2022/06/04 06:46:28;;;;;;;3.83;2.60;;;19.60;55.80;;;;;;5075926;28;20174;-70
2022/06/04 06:49:14;;;;;;;2.88;2.60;;;19.60;55.80;;;;;;5075308;28;20253;-69
2022/06/04 06:51:47;;;;;;;2.30;2.10;;;19.50;55.70;;;;;;5072901;28;20646;-70
2022/06/04 06:54:14;;;;;;;3.00;2.67;;;19.60;55.80;;;;;;5055629;28;20171;-70
2022/06/04 06:56:41;;;;;;;2.28;2.13;;;19.60;55.80;;;;;;5054743;28;20187;-69
2022/06/04 06:59:06;;;;;;;2.78;2.58;;;19.60;55.80;;;;;;5055814;28;20578;-70
2022/06/04 07:01:32;;;;;;;2.97;2.47;;;19.60;55.80;;;;;;5055466;28;20211;-71
2022/06/04 07:03:57;;;;;;;2.63;2.40;;;19.60;55.80;;;;;;5054691;28;20229;-71
2022/06/04 07:06:33;;;;;;;2.47;2.10;;;19.50;55.70;;;;;;5055638;28;20197;-70
2022/06/04 07:08:59;;;;;;;2.42;2.22;;;19.60;55.80;;;;;;5055386;28;20625;-70
2022/06/04 07:11:25;;;;;;;2.90;2.50;;;19.60;55.80;;;;;;5054756;28;20226;-69
2022/06/04 07:13:51;;;;;;;2.50;2.30;;;19.50;55.80;;;;;;5055499;28;20171;-69
2022/06/04 07:16:16;;;;;;;2.70;2.50;;;19.60;55.80;;;;;;5055517;28;20213;-68
2022/06/04 07:18:42;;;;;;;3.28;2.50;;;19.60;55.80;;;;;;5054527;28;20174;-69
2022/06/04 07:21:07;;;;;;;3.47;2.75;;;19.60;55.80;;;;;;5055452;28;20240;-69
2022/06/04 07:23:34;;;;;;;2.50;2.30;;;19.60;55.80;;;;;;5055286;28;20225;-69
2022/06/04 07:26:00;;;;;;;2.60;2.40;;;19.60;55.80;;;;;;5054704;28;20187;-69
2022/06/04 07:28:26;;;;;;;2.25;2.15;;;19.60;55.80;;;;;;5055456;28;20179;-70
2022/06/04 07:30:52;;;;;;;3.60;2.67;;;19.60;55.80;;;;;;5054944;28;20301;-70
2022/06/04 07:33:17;;;;;;;2.70;2.45;;;19.60;55.80;;;;;;5054486;28;20176;-71
2022/06/04 07:35:50;;;;;;;2.58;2.40;;;19.60;55.80;;;;;;5054408;28;20167;-71
2022/06/04 07:38:15;;;;;;;2.83;2.63;;;19.60;55.80;;;;;;5055403;28;20282;-71
2022/06/04 07:40:41;;;;;;;2.55;2.35;;;19.70;55.80;;;;;;5054229;28;20262;-71
2022/06/04 07:43:07;;;;;;;2.70;2.50;;;19.70;56.60;;;;;;5055121;28;20626;-69
2022/06/04 07:45:34;;;;;;;3.03;2.35;;;19.70;56.10;;;;;;5054339;28;20273;-70
2022/06/04 07:48:00;;;;;;;3.60;2.65;;;19.70;56.00;;;;;;5054851;28;20258;-69
2022/06/04 07:50:25;;;;;;;2.83;2.40;;;19.70;56.00;;;;;;5054646;28;20293;-70
2022/06/04 07:52:51;;;;;;;4.07;2.97;;;19.70;55.90;;;;;;5066085;28;20192;-70
2022/06/04 07:55:17;;;;;;;3.65;3.05;;;19.70;55.80;;;;;;5074880;28;20276;-69
2022/06/04 07:57:42;;;;;;;4.10;2.83;;;19.70;55.80;;;;;;5074473;28;20684;-69
2022/06/04 08:00:09;;;;;;;4.82;2.70;;;19.70;55.80;;;;;;5074208;28;20178;-69
2022/06/04 08:02:35;;;;;;;3.42;2.42;;;19.70;55.80;;;;;;5074154;28;20612;-69
2022/06/04 08:05:00;;;;;;;3.65;2.80;;;19.70;55.80;;;;;;5074399;28;20236;-71
2022/06/04 08:07:26;;;;;;;5.50;3.15;;;19.70;55.90;;;;;;5074062;28;20177;-69
2022/06/04 08:09:53;;;;;;;3.78;2.53;;;19.70;55.80;;;;;;5074286;28;20244;-69
2022/06/04 08:12:18;;;;;;;4.65;3.00;;;19.70;55.80;;;;;;5074583;28;20177;-68
2022/06/04 08:14:46;;;;;;;3.33;3.03;;;19.70;55.80;;;;;;5073475;28;20257;-69
2022/06/04 08:17:12;;;;;;;3.47;2.80;;;19.70;55.80;;;;;;5074661;28;20262;-68
2022/06/04 08:19:38;;;;;;;3.58;2.90;;;19.70;55.80;;;;;;5073964;28;20206;-68
2022/06/04 08:22:04;;;;;;;3.80;2.65;;;19.70;55.80;;;;;;5073785;28;20586;-69
2022/06/04 08:24:32;;;;;;;2.50;2.30;;;19.70;55.80;;;;;;5074414;28;20171;-67
2022/06/04 08:26:58;;;;;;;3.17;2.80;;;19.70;55.70;;;;;;5073872;28;20243;-68
2022/06/04 08:29:25;;;;;;;4.07;2.88;;;19.70;55.80;;;;;;5073485;28;20217;-68
2022/06/04 08:31:50;;;;;;;3.42;2.88;;;19.70;55.80;;;;;;5073971;28;20312;-68
2022/06/04 08:34:16;;;;;;;2.85;2.65;;;19.70;55.70;;;;;;5073902;28;20253;-67
2022/06/04 08:36:41;;;;;;;4.57;3.15;;;19.70;55.70;;;;;;5073144;28;20231;-68
2022/06/04 08:39:07;;;;;;;5.18;3.42;;;19.70;55.80;;;;;;5074128;28;20174;-68
2022/06/04 08:41:51;;;;;;;6.10;2.90;;;19.70;55.80;;;;;;5074099;28;20585;-68
2022/06/04 08:44:18;;;;;;;4.55;3.08;;;19.70;55.80;;;;;;5073620;28;20224;-68
2022/06/04 08:46:52;;;;;;;6.07;2.92;;;19.80;55.90;;;;;;5072511;28;20573;-68
2022/06/04 08:49:39;;;;;;;4.35;2.80;;;19.80;55.90;;;;;;5072097;28;20228;-68
2022/06/04 08:52:16;;;;;;;7.30;3.53;;;19.80;55.90;;;;;;5068043;28;20574;-66
2022/06/04 08:57:41;;;;;;;3.70;3.00;;;19.90;55.90;;;;;;5053213;28;20170;-67
2022/06/04 09:00:13;;;;;;;4.82;3.20;;;19.90;55.90;;;;;;5037964;28;20242;-67
2022/06/04 09:02:56;;;;;;;4.97;3.00;;;20.00;56.00;;;;;;5053017;28;20222;-66
2022/06/04 09:05:45;;;;;;;4.95;3.08;;;20.00;55.90;;;;;;5052553;28;20531;-67
2022/06/04 09:08:40;;;;;;;6.35;2.67;;;20.00;55.90;;;;;;5037921;28;20228;-71
2022/06/04 09:11:11;;;;;;;4.18;2.78;;;20.10;55.90;;;;;;5052524;28;20668;-69
2022/06/04 09:13:59;;;;;;;4.03;2.60;;;20.10;56.00;;;;;;5035962;28;20216;-70
2022/06/04 09:16:36;;;;;;;4.22;3.15;;;20.10;55.90;;;;;;5038444;28;20587;-69
2022/06/04 09:19:04;;;;;;;4.55;3.00;;;20.20;56.00;;;;;;5035197;28;20186;-69
2022/06/04 09:21:35;;;;;;;3.08;2.78;;;20.20;55.90;;;;;;5052140;28;20175;-70
2022/06/04 09:24:00;;;;;;;5.35;3.03;;;20.20;55.90;;;;;;5035009;28;20175;-70
2022/06/04 09:26:42;;;;;;;3.50;2.67;;;20.20;55.90;;;;;;5053295;28;20175;-69
2022/06/04 09:29:26;;;;;;;3.58;2.95;;;20.30;55.90;;;;;;5053242;28;20228;-74
2022/06/04 09:31:58;;;;;;;4.70;2.63;;;20.30;55.90;;;;;;5052076;28;20187;-73
2022/06/04 09:34:29;;;;;;;4.07;2.80;;;20.30;55.80;;;;;;5053223;28;20171;-72
2022/06/04 09:36:55;;;;;;;3.00;2.70;;;20.30;55.80;;;;;;5051523;28;20193;-74
2022/06/04 09:39:31;;;;;;;3.17;2.90;;;20.40;55.90;;;;;;5034371;28;20254;-71
2022/06/04 09:42:01;;;;;;;3.72;2.70;;;20.40;55.80;;;;;;5052658;28;20239;-71
2022/06/04 09:44:28;;;;;;;3.90;3.13;;;20.40;55.80;;;;;;5052785;28;20186;-70
2022/06/04 09:47:07;;;;;;;2.75;2.55;;;20.40;55.80;;;;;;5050526;28;20540;-71
2022/06/04 09:49:35;;;;;;;3.40;2.72;;;20.40;55.80;;;;;;5053066;28;20581;-74
2022/06/04 09:52:13;;;;;;;3.03;2.30;;;20.50;55.80;;;;;;5039603;28;20174;-72
2022/06/04 09:54:42;;;;;;;5.13;3.08;;;20.50;55.80;;;;;;5071553;28;20177;-72
2022/06/04 09:57:30;;;;;;;4.05;2.90;;;20.50;55.70;;;;;;5055393;28;20206;-73
2022/06/04 09:59:57;;;;;;;2.58;2.25;;;20.50;55.70;;;;;;5070817;28;20182;-70
2022/06/04 10:02:22;;;;;;;2.85;2.58;;;20.50;55.70;;;;;;5072555;28;20685;-66
2022/06/04 10:04:49;;;;;;;3.25;2.65;;;20.50;55.70;;;;;;5072482;28;20182;-74
2022/06/04 10:07:20;;;;;;;6.57;2.90;;;20.50;55.70;;;;;;5070902;28;20227;-75
2022/06/04 10:09:56;;;;;;;2.80;2.42;;;20.60;55.70;;;;;;5071044;28;20557;-73
2022/06/04 10:15:47;;;;;;;3.00;2.80;;;20.60;55.60;;;;;;5070843;28;20608;-71
2022/06/04 10:18:20;;;;;;;3.40;3.10;;;20.60;55.60;;;;;;5072492;28;20704;-71
2022/06/04 10:20:58;;;;;;;4.75;2.42;;;20.70;55.60;;;;;;5071646;28;20185;-72
2022/06/04 10:23:24;;;;;;;3.70;2.92;;;20.70;55.60;;;;;;5072765;28;20220;-71
2022/06/04 10:26:17;;;;;;;4.07;2.72;;;20.60;55.60;;;;;;5072223;28;20206;-70
2022/06/04 10:28:53;;;;;;;7.03;2.83;;;20.70;55.60;;;;;;5070375;28;20179;-72
2022/06/04 10:31:50;;;;;;;3.97;2.50;;;20.70;55.60;;;;;;5071447;28;20198;-73
2022/06/04 10:34:53;;;;;;;2.65;2.45;;;20.70;55.60;;;;;;5054954;28;20215;-74
2022/06/04 10:37:31;;;;;;;2.60;2.40;;;20.80;55.60;;;;;;5071119;28;20633;-65
2022/06/04 10:40:11;;;;;;;5.45;2.90;;;20.80;55.70;;;;;;5071989;28;20641;-65
2022/06/04 10:43:14;;;;;;;3.72;2.63;;;20.70;55.60;;;;;;5071326;28;20178;-65
2022/06/04 10:45:48;;;;;;;3.67;2.78;;;20.70;55.60;;;;;;5071925;28;20178;-66
2022/06/04 10:48:38;;;;;;;3.40;2.28;;;20.60;55.60;;;;;;5072324;28;20170;-66
2022/06/04 10:51:28;;;;;;;4.90;2.90;;;20.70;55.60;;;;;;5072319;28;20198;-69
2022/06/04 10:54:09;;;;;;;6.32;2.50;;;20.70;55.60;;;;;;5030969;28;20175;-70
2022/06/04 10:56:51;;;;;;;5.15;2.95;;;20.70;55.50;;;;;;5046780;28;20180;-69
2022/06/04 10:59:40;;;;;;;4.88;2.58;;;20.80;55.50;;;;;;5047489;28;20627;-69
2022/06/04 11:02:15;;;;;;;3.40;2.55;;;20.80;55.50;;;;;;5047260;28;20254;-69
2022/06/04 11:04:46;;;;;;;4.13;2.63;;;20.80;55.50;;;;;;5031083;28;20175;-69
2022/06/04 11:07:22;;;;;;;5.60;2.53;;;20.80;55.50;;;;;;5047723;28;20203;-69
2022/06/04 11:09:47;;;;;;;3.28;2.60;;;20.90;55.60;;;;;;5047224;28;20554;-66
2022/06/04 11:12:30;;;;;;;6.60;2.85;;;20.80;55.50;;;;;;5050911;28;20167;-66
2022/06/04 11:14:59;;;;;;;7.25;2.78;;;20.90;55.60;;;;;;5035269;28;20180;-64
2022/06/04 11:17:33;;;;;;;7.40;2.90;;;20.90;55.60;;;;;;5050104;28;20176;-74
2022/06/04 11:20:28;;;;;;;5.43;3.05;;;20.90;55.50;;;;;;5050316;28;20209;-74
2022/06/04 11:23:15;;;;;;;4.43;2.70;;;20.90;55.50;;;;;;5034664;28;20187;-74
2022/06/04 11:25:42;;;;;;;6.60;2.97;;;20.90;55.40;;;;;;5034567;28;20175;-74
2022/06/04 11:28:10;;;;;;;3.28;2.83;;;21.00;55.40;;;;;;5050786;28;20188;-74
2022/06/04 11:30:54;;;;;;;5.28;2.65;;;21.00;55.40;;;;;;5049780;28;20261;-74
2022/06/04 11:33:35;;;;;;;3.72;2.70;;;21.00;55.40;;;;;;5035480;28;20164;-68
2022/06/04 11:36:14;;;;;;;3.38;3.08;;;21.00;55.40;;;;;;5035140;28;20176;-70
2022/06/04 11:39:01;;;;;;;4.75;3.03;;;21.00;55.40;;;;;;5049892;28;20178;-71
2022/06/04 11:41:43;;;;;;;4.25;2.60;;;21.00;55.40;;;;;;5035202;28;20196;-69
2022/06/04 11:44:15;;;;;;;4.07;2.50;;;21.00;55.30;;;;;;5050021;28;20627;-69
2022/06/04 11:46:50;;;;;;;6.93;3.22;;;21.10;55.40;;;;;;5034242;28;20176;-69
2022/06/04 11:49:25;;;;;;;3.60;2.30;;;21.00;55.40;;;;;;5050335;28;20250;-70
2022/06/04 11:52:11;;;;;;;4.65;2.50;;;21.10;55.30;;;;;;5041087;28;20676;-70
2022/06/04 11:54:53;;;;;;;3.97;3.03;;;21.10;55.30;;;;;;5074742;28;20166;-69
2022/06/04 11:57:36;;;;;;;4.35;2.42;;;21.20;55.30;;;;;;5073767;28;20296;-69
2022/06/04 12:00:09;;;;;;;5.07;2.72;;;21.10;55.20;;;;;;5073074;28;20514;-69
2022/06/04 12:03:05;;;;;;;6.90;2.80;;;21.20;55.20;;;;;;5073287;28;20339;-68
2022/06/04 12:05:43;;;;;;;5.25;2.50;;;21.20;55.10;;;;;;5073538;28;20281;-69
2022/06/04 12:08:14;;;;;;;3.00;2.70;;;21.20;55.10;;;;;;5074826;28;20182;-69
2022/06/04 12:10:57;;;;;;;2.85;2.60;;;21.30;55.10;;;;;;5074046;28;20285;-69
2022/06/04 12:13:44;;;;;;;4.68;2.80;;;21.20;54.90;;;;;;5073508;28;20648;-68
2022/06/04 12:16:16;;;;;;;5.22;3.20;;;21.30;54.90;;;;;;5073536;28;20170;-68
2022/06/04 12:18:41;;;;;;;2.58;2.13;;;21.30;54.90;;;;;;5057007;28;20182;-68
2022/06/04 12:24:27;;;;;;;3.15;2.65;;;21.30;54.70;;;;;;5074327;28;20589;-68
2022/06/04 12:27:04;;;;;;;4.10;2.65;;;21.40;54.60;;;;;;5073329;28;20231;-69
2022/06/04 12:29:32;;;;;;;2.67;2.45;;;21.40;54.50;;;;;;5073989;28;20574;-69
2022/06/04 12:32:18;;;;;;;2.67;2.42;;;21.40;54.50;;;;;;5073516;28;20183;-69
2022/06/04 12:34:44;;;;;;;2.95;2.15;;;21.50;54.50;;;;;;5072186;28;20475;-70
2022/06/04 12:37:44;;;;;;;8.48;2.95;;;21.50;54.50;;;;;;5056345;28;20178;-69
2022/06/04 12:40:19;;;;;;;4.15;2.38;;;21.50;54.40;;;;;;5073657;28;20187;-68
2022/06/04 12:42:59;;;;;;;2.75;2.55;;;21.50;54.30;;;;;;5073081;28;20197;-69
2022/06/04 12:45:38;;;;;;;3.63;2.60;;;21.50;54.30;;;;;;5073885;28;20170;-69
2022/06/04 12:48:36;;;;;;;3.53;3.00;;;21.50;54.30;;;;;;5073332;28;20178;-69
2022/06/04 12:51:10;;;;;;;2.80;2.60;;;21.60;54.30;;;;;;5072892;28;20214;-70
2022/06/04 12:53:58;;;;;;;2.55;2.35;;;21.70;54.20;;;;;;5054445;28;20170;-70
2022/06/04 12:56:33;;;;;;;4.30;2.58;;;21.70;54.10;;;;;;5051921;28;20198;-68
2022/06/04 12:58:59;;;;;;;2.85;2.60;;;21.70;54.00;;;;;;5051984;28;20171;-69
2022/06/04 13:01:34;;;;;;;3.53;2.65;;;21.70;54.00;;;;;;5053435;28;20229;-68
2022/06/04 13:04:06;;;;;;;4.32;2.53;;;21.70;53.90;;;;;;5051207;28;20190;-68
2022/06/04 13:06:51;;;;;;;2.22;2.13;;;21.70;53.90;;;;;;5053567;28;20179;-68
2022/06/04 13:09:46;;;;;;;3.17;2.45;;;21.80;54.00;;;;;;5052781;28;20198;-68
2022/06/04 13:12:28;;;;;;;2.88;2.67;;;21.70;54.00;;;;;;5048457;28;20206;-67
2022/06/04 13:15:15;;;;;;;3.88;2.50;;;21.70;54.10;;;;;;5053161;28;20177;-68
2022/06/04 13:17:48;;;;;;;3.88;2.63;;;21.80;54.00;;;;;;5052313;28;20257;-67
2022/06/04 13:20:36;;;;;;;3.38;3.10;;;21.80;53.90;;;;;;5053517;28;20179;-68
2022/06/04 13:23:21;;;;;;;3.50;2.88;;;21.90;53.80;;;;;;5051226;28;20164;-68
2022/06/04 13:26:31;;;;;;;2.55;2.35;;;21.90;53.80;;;;;;5051898;28;20175;-68
2022/06/04 13:28:57;;;;;;;2.63;2.33;;;21.90;53.80;;;;;;5053020;28;20202;-69
2022/06/04 13:31:25;;;;;;;2.53;2.33;;;21.90;53.80;;;;;;5052337;28;20223;-69
2022/06/04 13:33:51;;;;;;;3.13;2.58;;;21.90;53.80;;;;;;5052470;28;20168;-68